Time;durP1;ratioP1;P1;durP2;ratioP2;P2;SDS_P1;SDS_P2;PMS_P1;PMS_P2;Temp;Humidity;BMP_temperature;BMP_pressure;BME280_temperature;BME280_humidity;BME280_pressure;Samples;Min_cycle;Max_cycle;Signal;HPM_P1;HPM_P2
2023/09/10 00:00:03;;;;;;;11.05;5.57;;;19.20;99.90;;;;;;5078503;28;20060;-79
2023/09/10 00:02:31;;;;;;;13.15;5.53;;;19.20;99.90;;;;;;5082220;28;20055;-79
2023/09/10 00:04:58;;;;;;;10.80;6.07;;;19.20;99.90;;;;;;5077101;28;20127;-79
2023/09/10 00:07:25;;;;;;;13.00;6.13;;;19.10;99.90;;;;;;5081440;28;20047;-79
2023/09/10 00:09:52;;;;;;;8.73;5.45;;;19.10;99.90;;;;;;5076335;28;20105;-79
2023/09/10 00:12:19;;;;;;;11.02;6.10;;;19.10;99.90;;;;;;5062645;28;20048;-79
2023/09/10 00:14:46;;;;;;;10.32;5.72;;;19.10;99.90;;;;;;5079402;28;20520;-79
2023/09/10 00:17:13;;;;;;;11.35;6.07;;;19.00;99.90;;;;;;5077976;28;20044;-79
2023/09/10 00:19:40;;;;;;;8.98;5.55;;;19.00;99.90;;;;;;5093583;28;20040;-79
2023/09/10 00:22:08;;;;;;;9.75;5.53;;;18.90;99.90;;;;;;5081185;28;20093;-79
2023/09/10 00:24:35;;;;;;;13.18;6.15;;;19.00;99.90;;;;;;5086289;28;20055;-79
2023/09/10 00:27:03;;;;;;;9.50;5.43;;;19.00;99.90;;;;;;5072520;28;20036;-79
2023/09/10 00:29:30;;;;;;;8.15;5.78;;;18.90;99.90;;;;;;5069013;28;20051;-79
2023/09/10 00:31:57;;;;;;;10.18;5.75;;;19.00;99.90;;;;;;5062703;28;20101;-79
2023/09/10 00:34:25;;;;;;;8.07;5.10;;;18.90;99.90;;;;;;5078446;28;20032;-79
2023/09/10 00:36:52;;;;;;;8.65;5.22;;;18.90;99.90;;;;;;5082747;28;20072;-79
2023/09/10 00:39:19;;;;;;;11.02;5.57;;;18.90;99.90;;;;;;5079519;28;20090;-79
2023/09/10 00:41:47;;;;;;;10.70;6.25;;;18.80;99.90;;;;;;5076347;28;20068;-79
2023/09/10 00:44:14;;;;;;;12.02;6.03;;;18.80;99.90;;;;;;5080966;28;20118;-79
2023/09/10 00:46:41;;;;;;;11.30;5.78;;;18.80;99.90;;;;;;5063420;28;20056;-79
2023/09/10 00:49:08;;;;;;;10.00;6.05;;;18.80;99.90;;;;;;5095932;27;20142;-79
2023/09/10 00:51:36;;;;;;;9.60;5.97;;;18.80;99.90;;;;;;5076490;28;20876;-79
2023/09/10 00:54:03;;;;;;;9.00;6.07;;;18.70;99.90;;;;;;5069487;28;22724;-79
2023/09/10 00:56:31;;;;;;;9.18;5.57;;;18.70;99.90;;;;;;5065834;28;20089;-79
2023/09/10 00:58:58;;;;;;;8.13;5.15;;;18.70;99.90;;;;;;5065580;28;20554;-79
2023/09/10 01:01:26;;;;;;;9.65;5.68;;;18.70;99.90;;;;;;5073121;28;20097;-79
2023/09/10 01:03:53;;;;;;;9.35;5.68;;;18.70;99.90;;;;;;5067525;28;20052;-79
2023/09/10 01:06:22;;;;;;;10.07;5.38;;;18.70;99.90;;;;;;5065632;28;20093;-79
2023/09/10 01:08:49;;;;;;;9.63;5.25;;;18.60;99.90;;;;;;5084188;28;20048;-79
2023/09/10 01:11:45;;;;;;;9.15;5.38;;;18.60;99.90;;;;;;5079401;28;20052;-79
2023/09/10 01:14:52;;;;;;;10.48;6.45;;;18.60;99.90;;;;;;5080335;28;20154;-79
2023/09/10 01:17:51;;;;;;;10.23;5.65;;;18.60;99.90;;;;;;5080284;28;20139;-80
2023/09/10 01:20:49;;;;;;;7.50;5.15;;;18.50;99.90;;;;;;5056742;28;20441;-80
2023/09/10 01:23:31;;;;;;;9.20;5.82;;;18.50;99.90;;;;;;5097688;28;20050;-80
2023/09/10 01:25:58;;;;;;;10.90;5.82;;;18.40;99.90;;;;;;5065365;28;20053;-79
2023/09/10 01:28:25;;;;;;;17.23;5.93;;;18.40;99.90;;;;;;5078282;28;20043;-79
2023/09/10 01:30:53;;;;;;;12.05;5.80;;;18.40;99.90;;;;;;5082404;28;20071;-79
2023/09/10 01:33:28;;;;;;;9.50;5.82;;;18.40;99.90;;;;;;5082666;28;20390;-79
2023/09/10 01:36:16;;;;;;;8.88;5.88;;;18.40;99.90;;;;;;5084526;28;20044;-79
2023/09/10 01:38:55;;;;;;;11.23;5.35;;;18.40;99.90;;;;;;5067866;28;20079;-79
2023/09/10 01:41:25;;;;;;;9.90;5.57;;;18.30;99.90;;;;;;5078087;28;20123;-79
2023/09/10 01:43:53;;;;;;;7.90;5.18;;;18.30;99.90;;;;;;5086744;28;20394;-78
2023/09/10 01:46:23;;;;;;;8.63;5.45;;;18.40;99.90;;;;;;5066537;28;20040;-78
2023/09/10 01:48:50;;;;;;;10.27;5.82;;;18.30;99.90;;;;;;5066295;28;20434;-79
2023/09/10 01:51:18;;;;;;;10.00;6.35;;;18.40;99.90;;;;;;5084718;28;20053;-80
2023/09/10 01:53:46;;;;;;;9.20;6.25;;;18.40;99.90;;;;;;5080735;28;20417;-80
2023/09/10 01:56:13;;;;;;;11.38;5.85;;;18.40;99.90;;;;;;5096299;28;20521;-79
2023/09/10 01:58:40;;;;;;;9.25;6.35;;;18.40;99.90;;;;;;5061981;28;20060;-79
2023/09/10 02:01:08;;;;;;;9.38;5.60;;;18.40;99.90;;;;;;5068469;28;20047;-79
2023/09/10 02:03:35;;;;;;;9.80;5.38;;;18.30;99.90;;;;;;5068205;28;20068;-79
2023/09/10 02:06:03;;;;;;;8.45;5.35;;;18.30;99.90;;;;;;5065205;28;20478;-79
2023/09/10 02:08:31;;;;;;;8.52;5.20;;;18.40;99.90;;;;;;5078150;28;20491;-79
2023/09/10 02:11:02;;;;;;;10.27;5.32;;;18.30;99.90;;;;;;5060638;28;20040;-79
2023/09/10 02:13:29;;;;;;;8.95;5.88;;;18.30;99.90;;;;;;5082759;28;20052;-79
2023/09/10 02:15:56;;;;;;;7.43;5.68;;;18.20;99.90;;;;;;5086770;28;20040;-80
2023/09/10 02:18:25;;;;;;;9.07;5.53;;;18.20;99.90;;;;;;5090716;28;20048;-79
2023/09/10 02:20:52;;;;;;;8.98;6.07;;;18.30;99.90;;;;;;5076153;28;20040;-79
2023/09/10 02:23:20;;;;;;;9.38;6.00;;;18.30;99.90;;;;;;5078870;28;21045;-79
2023/09/10 02:25:48;;;;;;;8.63;5.10;;;18.30;99.90;;;;;;5069145;28;20079;-79
2023/09/10 02:28:15;;;;;;;12.10;6.47;;;18.20;99.90;;;;;;5060235;28;20049;-79
2023/09/10 02:30:42;;;;;;;8.52;5.38;;;18.20;99.90;;;;;;5079702;28;20044;-80
2023/09/10 02:33:10;;;;;;;7.93;5.57;;;18.20;99.90;;;;;;5085227;28;20048;-80
2023/09/10 02:35:37;;;;;;;8.23;5.78;;;18.20;99.90;;;;;;5063838;28;20127;-80
2023/09/10 02:38:04;;;;;;;10.38;5.85;;;18.20;99.90;;;;;;5069627;28;20111;-80
2023/09/10 02:40:31;;;;;;;8.32;5.30;;;18.20;99.90;;;;;;5084176;28;20040;-80
2023/09/10 02:42:59;;;;;;;9.40;5.50;;;18.20;99.90;;;;;;5089208;28;20052;-80
2023/09/10 02:45:26;;;;;;;10.77;5.97;;;18.20;99.90;;;;;;5067764;28;20125;-80
2023/09/10 02:47:53;;;;;;;9.40;5.50;;;18.10;99.90;;;;;;5067770;28;20051;-80
2023/09/10 02:50:20;;;;;;;9.35;5.60;;;18.10;99.90;;;;;;5067202;28;20122;-80
2023/09/10 02:52:47;;;;;;;10.10;5.32;;;18.10;99.90;;;;;;5084115;28;20060;-80
2023/09/10 02:55:16;;;;;;;9.18;6.05;;;18.00;99.90;;;;;;5080086;28;20047;-78
2023/09/10 02:57:43;;;;;;;10.50;6.47;;;18.00;99.90;;;;;;5079041;28;20056;-79
2023/09/10 03:00:11;;;;;;;8.45;5.63;;;18.00;99.90;;;;;;5060845;28;20131;-79
2023/09/10 03:02:38;;;;;;;9.80;5.80;;;18.00;99.90;;;;;;5070731;28;20048;-79
2023/09/10 03:05:06;;;;;;;10.35;5.80;;;18.00;99.90;;;;;;5066030;28;20040;-79
2023/09/10 03:07:34;;;;;;;11.60;5.53;;;18.00;99.90;;;;;;5076506;28;20042;-79
2023/09/10 03:10:01;;;;;;;11.32;6.22;;;17.90;99.90;;;;;;5091441;28;20044;-80
2023/09/10 03:12:29;;;;;;;9.63;5.65;;;17.90;99.90;;;;;;5079864;28;20097;-79
2023/09/10 03:14:57;;;;;;;9.77;5.70;;;17.90;99.90;;;;;;5078755;28;20040;-79
2023/09/10 03:17:27;;;;;;;10.85;6.70;;;17.90;99.90;;;;;;5080869;28;20072;-79
2023/09/10 03:19:54;;;;;;;10.10;5.88;;;17.90;99.90;;;;;;5084052;28;20052;-79
2023/09/10 03:22:21;;;;;;;8.40;5.43;;;18.00;99.90;;;;;;5065930;28;20044;-79
2023/09/10 03:24:48;;;;;;;11.35;6.43;;;17.90;99.90;;;;;;5085034;28;20105;-79
2023/09/10 03:27:16;;;;;;;8.25;5.70;;;17.90;99.90;;;;;;5081897;28;20040;-80
2023/09/10 03:29:44;;;;;;;10.32;6.13;;;17.90;99.90;;;;;;5066968;28;20132;-80
2023/09/10 03:32:11;;;;;;;8.23;5.60;;;17.90;99.90;;;;;;5061912;28;20085;-80
2023/09/10 03:34:38;;;;;;;11.10;5.95;;;17.90;99.90;;;;;;5071411;28;20044;-80
2023/09/10 03:37:06;;;;;;;10.00;5.60;;;17.90;99.90;;;;;;5081673;28;20075;-79
2023/09/10 03:39:34;;;;;;;9.00;5.65;;;17.80;99.90;;;;;;5079119;28;20060;-79
2023/09/10 03:42:02;;;;;;;8.70;6.20;;;17.80;99.90;;;;;;5060570;28;20469;-80
2023/09/10 03:44:30;;;;;;;11.93;5.78;;;17.80;99.90;;;;;;5080112;28;20421;-80
2023/09/10 03:46:57;;;;;;;6.63;5.40;;;17.80;99.90;;;;;;5067379;28;20048;-80
2023/09/10 03:49:24;;;;;;;11.75;6.53;;;17.70;99.90;;;;;;5084728;28;20110;-80
2023/09/10 03:51:53;;;;;;;9.52;5.63;;;17.70;99.90;;;;;;5088065;28;20110;-80
2023/09/10 03:54:20;;;;;;;8.02;5.55;;;17.70;99.90;;;;;;5086427;28;20047;-80
2023/09/10 03:56:47;;;;;;;8.73;5.45;;;17.70;99.90;;;;;;5060441;28;20048;-80
2023/09/10 03:59:15;;;;;;;10.77;5.82;;;17.70;99.90;;;;;;5086274;28;20083;-80
2023/09/10 04:01:42;;;;;;;11.52;5.88;;;17.60;99.90;;;;;;5077368;28;20036;-80
2023/09/10 04:04:09;;;;;;;11.63;5.95;;;17.70;99.90;;;;;;5068689;28;20063;-80
2023/09/10 04:06:36;;;;;;;10.05;6.47;;;17.60;99.90;;;;;;5089021;28;20043;-80
2023/09/10 04:09:04;;;;;;;8.80;5.68;;;17.60;99.90;;;;;;5069622;28;20051;-80
2023/09/10 04:11:31;;;;;;;8.43;5.05;;;17.60;99.90;;;;;;5102102;27;20044;-80
2023/09/10 04:13:58;;;;;;;10.48;5.65;;;17.60;99.90;;;;;;5085643;28;20040;-80
2023/09/10 04:16:26;;;;;;;8.82;4.78;;;17.60;99.90;;;;;;5080664;28;20055;-80
2023/09/10 04:18:53;;;;;;;7.00;5.25;;;17.50;99.90;;;;;;5061617;28;20044;-80
2023/09/10 04:21:20;;;;;;;10.00;6.20;;;17.50;99.90;;;;;;5072307;28;20078;-80
2023/09/10 04:23:48;;;;;;;9.23;6.18;;;17.60;99.90;;;;;;5095789;28;20549;-79
2023/09/10 04:26:15;;;;;;;8.20;5.43;;;17.50;99.90;;;;;;5081477;28;20143;-80
2023/09/10 04:28:42;;;;;;;10.38;5.72;;;17.50;99.90;;;;;;5065741;28;20040;-80
2023/09/10 04:31:13;;;;;;;10.07;6.47;;;17.50;99.90;;;;;;5063103;28;20230;-80
2023/09/10 04:33:40;;;;;;;9.25;5.68;;;17.50;99.90;;;;;;5066398;28;22901;-80
2023/09/10 04:36:08;;;;;;;8.70;5.93;;;17.50;99.90;;;;;;5088465;28;20036;-80
2023/09/10 04:38:36;;;;;;;11.98;6.15;;;17.50;99.90;;;;;;5071150;28;20053;-80
2023/09/10 04:41:04;;;;;;;10.50;6.22;;;17.50;99.90;;;;;;5068497;28;20052;-80
2023/09/10 04:43:31;;;;;;;9.73;5.80;;;17.50;99.90;;;;;;5085450;28;20044;-80
2023/09/10 04:45:59;;;;;;;9.77;6.13;;;17.50;99.90;;;;;;5065243;28;20394;-80
2023/09/10 04:48:27;;;;;;;9.88;6.03;;;17.60;99.90;;;;;;5080116;28;20414;-80
2023/09/10 04:50:54;;;;;;;12.52;6.43;;;17.60;99.90;;;;;;5081985;28;20101;-80
2023/09/10 04:53:21;;;;;;;10.80;6.35;;;17.60;99.90;;;;;;5076325;28;20048;-80
2023/09/10 04:55:53;;;;;;;11.95;6.32;;;17.50;99.90;;;;;;5086248;28;20044;-80
2023/09/10 04:58:23;;;;;;;13.60;7.00;;;17.60;99.90;;;;;;5066004;28;20410;-80
2023/09/10 05:00:50;;;;;;;10.07;6.60;;;17.60;99.90;;;;;;5079062;28;20050;-80
2023/09/10 05:03:21;;;;;;;10.23;5.88;;;17.60;99.90;;;;;;5068748;28;20051;-80
2023/09/10 05:05:59;;;;;;;10.45;6.68;;;17.60;99.90;;;;;;5083950;28;20044;-80
2023/09/10 05:08:27;;;;;;;13.05;6.93;;;17.70;99.90;;;;;;5091059;28;20098;-80
2023/09/10 05:10:55;;;;;;;10.00;6.57;;;17.70;99.90;;;;;;5064647;28;20051;-79
2023/09/10 05:13:22;;;;;;;12.18;6.57;;;17.70;99.90;;;;;;5085714;28;20093;-80
2023/09/10 05:15:51;;;;;;;12.13;6.43;;;17.80;99.90;;;;;;5075328;28;20044;-80
2023/09/10 05:18:18;;;;;;;10.07;6.53;;;17.80;99.90;;;;;;5064301;28;20406;-79
2023/09/10 05:20:47;;;;;;;9.13;5.63;;;17.80;99.90;;;;;;5080639;28;20050;-79
2023/09/10 05:23:14;;;;;;;10.70;6.35;;;17.90;99.90;;;;;;5084565;28;20123;-79
2023/09/10 05:25:41;;;;;;;10.10;6.28;;;17.90;99.90;;;;;;5081936;28;20140;-80
2023/09/10 05:28:09;;;;;;;10.85;6.13;;;17.90;99.90;;;;;;5066450;28;20097;-79
2023/09/10 05:30:37;;;;;;;10.73;6.25;;;18.00;99.90;;;;;;5072606;28;20044;-79
2023/09/10 05:33:05;;;;;;;10.75;6.40;;;18.00;99.90;;;;;;5080829;28;20040;-79
2023/09/10 05:35:32;;;;;;;10.88;6.15;;;18.10;99.90;;;;;;5079200;28;22874;-79
2023/09/10 05:37:59;;;;;;;13.05;7.00;;;18.10;99.90;;;;;;5076696;28;20062;-79
2023/09/10 05:40:27;;;;;;;11.27;6.85;;;18.20;99.90;;;;;;5082776;28;21907;-79
2023/09/10 05:42:54;;;;;;;12.43;7.30;;;18.30;99.90;;;;;;5076359;28;20091;-79
2023/09/10 05:45:21;;;;;;;11.60;6.82;;;18.30;99.90;;;;;;5074727;28;20060;-79
2023/09/10 05:47:49;;;;;;;16.75;7.57;;;18.40;99.90;;;;;;5061978;28;20444;-79
2023/09/10 05:50:16;;;;;;;11.18;7.15;;;18.40;99.90;;;;;;5064638;28;20090;-79
2023/09/10 05:52:46;;;;;;;10.85;6.50;;;18.50;99.90;;;;;;5081910;28;20040;-79
2023/09/10 05:55:13;;;;;;;9.45;5.75;;;18.60;99.90;;;;;;5063264;28;20060;-79
2023/09/10 05:57:40;;;;;;;8.63;5.78;;;18.60;99.90;;;;;;5089832;27;23105;-78
2023/09/10 06:00:08;;;;;;;9.65;6.20;;;18.70;99.90;;;;;;5095335;28;20044;-78
2023/09/10 06:02:41;;;;;;;7.95;5.60;;;18.80;99.90;;;;;;5074225;28;20151;-82
2023/09/10 06:05:09;;;;;;;9.57;5.88;;;18.90;99.90;;;;;;5061770;28;20139;-82
2023/09/10 06:07:37;;;;;;;7.95;5.43;;;19.00;99.90;;;;;;5080508;28;20040;-82
2023/09/10 06:10:08;;;;;;;9.18;5.53;;;19.10;99.90;;;;;;5066077;28;20047;-81
2023/09/10 06:12:37;;;;;;;8.65;6.07;;;19.20;99.90;;;;;;5081079;28;20118;-82
2023/09/10 06:15:06;;;;;;;8.27;5.72;;;19.30;99.90;;;;;;5073260;28;20036;-82
2023/09/10 06:17:34;;;;;;;8.23;5.63;;;19.40;99.90;;;;;;5065510;28;20044;-81
2023/09/10 06:20:02;;;;;;;11.32;6.40;;;19.50;99.90;;;;;;5060946;28;20059;-82
2023/09/10 06:22:30;;;;;;;9.98;6.10;;;19.60;99.90;;;;;;5062583;28;20032;-82
2023/09/10 06:24:57;;;;;;;8.80;5.55;;;19.70;99.90;;;;;;5072937;28;20051;-81
2023/09/10 06:27:24;;;;;;;10.00;5.60;;;19.90;99.90;;;;;;5080800;28;20036;-82
2023/09/10 06:29:51;;;;;;;6.97;5.03;;;20.00;99.90;;;;;;5082165;28;20036;-83
2023/09/10 06:32:19;;;;;;;10.38;5.50;;;20.10;99.90;;;;;;5064715;28;20060;-82
2023/09/10 06:34:46;;;;;;;7.90;4.78;;;20.20;99.90;;;;;;5078408;28;20121;-81
2023/09/10 06:37:13;;;;;;;8.43;5.20;;;20.40;99.90;;;;;;5068301;28;20164;-82
2023/09/10 06:39:42;;;;;;;9.27;4.93;;;20.40;99.90;;;;;;5078513;28;20064;-82
2023/09/10 06:42:11;;;;;;;8.93;5.10;;;20.50;99.90;;;;;;5072229;28;20040;-79
2023/09/10 06:44:43;;;;;;;9.02;5.05;;;20.60;99.90;;;;;;5077528;28;20091;-79
2023/09/10 06:47:11;;;;;;;8.30;5.18;;;20.70;99.90;;;;;;5083013;28;20075;-81
2023/09/10 06:49:38;;;;;;;10.68;5.30;;;20.80;99.50;;;;;;5081612;28;20036;-80
2023/09/10 06:52:09;;;;;;;7.57;5.28;;;20.90;99.30;;;;;;5080016;28;20118;-81
2023/09/10 06:54:37;;;;;;;7.20;5.68;;;21.10;98.90;;;;;;5094733;28;20045;-80
2023/09/10 06:57:04;;;;;;;7.05;4.90;;;21.20;98.70;;;;;;5065657;28;20040;-81
2023/09/10 06:59:31;;;;;;;8.50;4.65;;;21.30;99.00;;;;;;5085189;28;21051;-79
2023/09/10 07:01:58;;;;;;;8.48;5.25;;;21.30;98.30;;;;;;5065794;28;20040;-79
2023/09/10 07:04:27;;;;;;;8.45;4.82;;;21.40;98.00;;;;;;5064378;28;20051;-80
2023/09/10 07:06:56;;;;;;;8.88;4.90;;;21.50;98.40;;;;;;5086153;28;20368;-82
2023/09/10 07:09:23;;;;;;;11.10;5.60;;;21.70;98.50;;;;;;5073219;28;20053;-80
2023/09/10 07:11:52;;;;;;;8.13;4.90;;;21.80;98.50;;;;;;5067930;28;20048;-80
2023/09/10 07:14:21;;;;;;;8.18;5.10;;;21.90;97.80;;;;;;5083826;28;20040;-79
2023/09/10 07:16:48;;;;;;;7.70;4.72;;;21.90;97.30;;;;;;5091708;28;20045;-80
2023/09/10 07:19:16;;;;;;;7.90;5.07;;;22.10;97.10;;;;;;5080003;28;20044;-83
2023/09/10 07:21:43;;;;;;;6.90;4.70;;;22.20;97.10;;;;;;5083138;28;20060;-83
2023/09/10 07:24:11;;;;;;;12.32;4.78;;;22.30;97.40;;;;;;5074745;28;20068;-81
2023/09/10 07:26:39;;;;;;;10.90;5.07;;;22.50;96.90;;;;;;5077436;28;20127;-80
2023/09/10 07:29:07;;;;;;;8.57;4.78;;;22.60;96.00;;;;;;5065131;28;20101;-80
2023/09/10 07:31:35;;;;;;;7.30;4.82;;;22.60;95.80;;;;;;5067170;28;20106;-81
2023/09/10 07:34:02;;;;;;;7.93;5.15;;;22.80;96.00;;;;;;5077218;28;20056;-81
2023/09/10 07:36:29;;;;;;;8.70;4.85;;;22.80;95.70;;;;;;5082751;28;20135;-83
2023/09/10 07:38:57;;;;;;;8.05;4.82;;;22.90;95.30;;;;;;5061407;28;20056;-81
2023/09/10 07:41:24;;;;;;;6.70;4.45;;;23.00;94.80;;;;;;5062860;28;20067;-81
2023/09/10 07:43:51;;;;;;;7.22;4.85;;;23.10;95.00;;;;;;5077909;28;20040;-81
2023/09/10 07:46:18;;;;;;;6.03;4.70;;;23.30;95.20;;;;;;5059795;28;22752;-83
2023/09/10 07:48:45;;;;;;;8.45;4.93;;;23.30;94.40;;;;;;5078250;28;20135;-82
2023/09/10 07:51:12;;;;;;;8.05;4.22;;;23.50;94.80;;;;;;5087815;28;20061;-79
2023/09/10 07:53:39;;;;;;;8.20;4.38;;;23.60;94.50;;;;;;5065179;28;20053;-80
2023/09/10 07:56:07;;;;;;;6.93;4.25;;;23.80;93.80;;;;;;5071823;28;20116;-81
2023/09/10 07:58:35;;;;;;;8.05;4.20;;;23.80;93.50;;;;;;5081284;28;20052;-82
2023/09/10 08:01:03;;;;;;;9.32;4.03;;;23.80;92.50;;;;;;5075028;28;20050;-82
2023/09/10 08:03:30;;;;;;;8.60;4.38;;;23.90;92.30;;;;;;5065500;28;20098;-81
2023/09/10 08:05:58;;;;;;;8.07;3.90;;;24.00;92.60;;;;;;5078214;28;20415;-83
2023/09/10 08:08:25;;;;;;;5.82;3.75;;;24.10;92.00;;;;;;5057676;28;20098;-80
2023/09/10 08:10:52;;;;;;;6.38;3.40;;;24.20;92.90;;;;;;5063347;28;20041;-82
2023/09/10 08:13:20;;;;;;;5.35;3.53;;;24.30;91.80;;;;;;5080014;28;20173;-83
2023/09/10 08:15:48;;;;;;;7.95;4.35;;;24.30;90.80;;;;;;5079282;28;20044;-83
2023/09/10 08:18:16;;;;;;;8.02;3.88;;;24.40;90.20;;;;;;5076629;28;20048;-82
2023/09/10 08:20:44;;;;;;;6.95;3.80;;;24.50;91.20;;;;;;5082264;28;20052;-82
2023/09/10 08:23:12;;;;;;;8.90;3.83;;;24.50;91.20;;;;;;5066140;28;20135;-83
2023/09/10 08:25:39;;;;;;;7.20;3.90;;;24.40;90.00;;;;;;5068535;28;20040;-80
2023/09/10 08:28:06;;;;;;;7.60;4.15;;;24.60;90.30;;;;;;5067858;28;20548;-81
2023/09/10 08:30:33;;;;;;;7.28;3.80;;;24.70;90.00;;;;;;5070335;28;20123;-80
2023/09/10 08:33:00;;;;;;;14.93;5.07;;;24.70;87.60;;;;;;5056293;28;20056;-80
2023/09/10 08:35:46;;;;;;;7.47;4.22;;;24.70;87.90;;;;;;5062599;28;20133;-81
2023/09/10 08:38:13;;;;;;;5.50;3.25;;;24.80;90.30;;;;;;5083111;28;20049;-79
2023/09/10 08:41:08;;;;;;;8.60;3.60;;;24.90;88.90;;;;;;5074536;28;20410;-80
2023/09/10 08:43:55;;;;;;;7.35;4.05;;;24.90;87.70;;;;;;5070490;28;20113;-81
2023/09/10 08:46:29;;;;;;;7.30;4.40;;;24.90;88.70;;;;;;5083715;28;20043;-81
2023/09/10 08:48:58;;;;;;;6.22;4.25;;;24.90;90.20;;;;;;5081665;28;20048;-81
2023/09/10 08:51:27;;;;;;;7.15;4.10;;;25.00;88.60;;;;;;5077842;28;20139;-81
2023/09/10 08:53:56;;;;;;;6.07;3.70;;;25.10;88.20;;;;;;5092625;28;20058;-81
2023/09/10 08:56:25;;;;;;;6.05;3.90;;;25.20;88.00;;;;;;5086233;28;20086;-81
2023/09/10 08:58:52;;;;;;;6.30;3.63;;;25.10;85.90;;;;;;5077539;28;20052;-81
2023/09/10 09:01:23;;;;;;;6.22;3.50;;;25.00;85.20;;;;;;5082601;28;20056;-81
2023/09/10 09:03:50;;;;;;;5.88;3.45;;;25.00;85.90;;;;;;5081138;28;20048;-82
2023/09/10 09:06:18;;;;;;;6.93;3.38;;;25.00;86.00;;;;;;5079655;28;20974;-81
2023/09/10 09:08:49;;;;;;;6.13;3.47;;;25.00;86.40;;;;;;5076625;28;20101;-81
2023/09/10 09:11:18;;;;;;;9.00;3.80;;;25.20;86.50;;;;;;5084441;28;20046;-81
2023/09/10 09:13:48;;;;;;;6.05;3.17;;;25.30;86.00;;;;;;5081295;28;20040;-82
2023/09/10 09:16:19;;;;;;;7.50;3.30;;;25.40;85.30;;;;;;5078944;28;20090;-82
2023/09/10 09:18:48;;;;;;;6.53;3.40;;;25.40;84.40;;;;;;5056866;28;20075;-82
2023/09/10 09:21:21;;;;;;;5.75;3.88;;;25.50;84.70;;;;;;5086928;28;20050;-82
2023/09/10 09:23:57;;;;;;;7.28;3.55;;;25.40;82.90;;;;;;5061992;28;20041;-83
2023/09/10 09:26:26;;;;;;;4.90;3.38;;;25.40;82.80;;;;;;5087876;28;22802;-82
2023/09/10 09:28:57;;;;;;;5.93;3.50;;;25.40;81.00;;;;;;5082004;28;20041;-82
2023/09/10 09:31:25;;;;;;;4.68;3.17;;;25.40;82.60;;;;;;5084475;28;20060;-82
2023/09/10 09:33:53;;;;;;;6.85;3.55;;;25.50;80.90;;;;;;5077867;28;20058;-81
2023/09/10 09:36:26;;;;;;;7.00;3.42;;;25.50;81.50;;;;;;5071576;28;20036;-82
2023/09/10 09:38:54;;;;;;;6.00;3.22;;;25.50;79.90;;;;;;5086450;28;20055;-82
2023/09/10 09:41:21;;;;;;;5.35;3.45;;;25.60;81.70;;;;;;5086577;28;20052;-81
2023/09/10 09:43:48;;;;;;;5.18;3.55;;;25.60;79.70;;;;;;5087406;28;20921;-82
2023/09/10 09:46:16;;;;;;;5.63;3.78;;;25.60;82.00;;;;;;5066108;28;20072;-82
2023/09/10 09:48:44;;;;;;;5.75;3.65;;;25.70;83.10;;;;;;5086186;28;20710;-82
2023/09/10 09:51:14;;;;;;;5.35;3.53;;;25.80;81.80;;;;;;5085227;28;20506;-81
2023/09/10 09:53:43;;;;;;;5.43;3.45;;;25.70;79.70;;;;;;5076671;28;20049;-81
2023/09/10 09:56:10;;;;;;;9.20;3.33;;;25.60;80.20;;;;;;5077372;28;20131;-82
2023/09/10 09:58:37;;;;;;;9.20;4.45;;;25.60;81.90;;;;;;5089777;28;20056;-81
2023/09/10 10:01:06;;;;;;;6.53;3.45;;;25.90;82.60;;;;;;5087222;28;20067;-81
2023/09/10 10:03:33;;;;;;;5.25;3.53;;;25.80;78.60;;;;;;5079078;28;20044;-81
2023/09/10 10:06:01;;;;;;;9.98;3.80;;;25.80;79.60;;;;;;5080354;28;20059;-82
2023/09/10 10:08:30;;;;;;;7.32;3.25;;;25.80;81.90;;;;;;5079552;28;20067;-82
2023/09/10 10:10:57;;;;;;;6.72;3.70;;;25.90;80.60;;;;;;5082682;28;20044;-81
2023/09/10 10:13:27;;;;;;;6.15;3.40;;;26.00;80.00;;;;;;5078526;28;20067;-82
2023/09/10 10:15:56;;;;;;;5.85;3.47;;;25.90;77.10;;;;;;5061030;28;20396;-80
2023/09/10 10:18:26;;;;;;;6.45;3.65;;;25.90;78.20;;;;;;5059783;28;20048;-80
2023/09/10 10:20:58;;;;;;;5.70;3.85;;;26.00;77.20;;;;;;5080987;28;20143;-80
2023/09/10 10:23:25;;;;;;;6.75;3.70;;;26.10;77.40;;;;;;5087260;28;20122;-80
2023/09/10 10:25:53;;;;;;;7.05;3.97;;;26.00;80.30;;;;;;5058646;28;20044;-79
2023/09/10 10:28:21;;;;;;;5.68;3.42;;;26.10;77.00;;;;;;5092894;28;20044;-79
2023/09/10 10:30:57;;;;;;;4.38;3.58;;;26.10;77.70;;;;;;5081097;28;20044;-79
2023/09/10 10:33:27;;;;;;;5.32;3.47;;;26.10;76.10;;;;;;5078642;28;20105;-79
2023/09/10 10:36:02;;;;;;;5.97;2.88;;;26.10;76.30;;;;;;5070007;28;20040;-80
2023/09/10 10:38:33;;;;;;;5.05;3.88;;;26.20;76.10;;;;;;5066394;28;20071;-79
2023/09/10 10:41:04;;;;;;;5.93;3.38;;;26.20;77.70;;;;;;5091394;28;20098;-79
2023/09/10 10:43:42;;;;;;;5.07;3.30;;;26.20;77.20;;;;;;5046158;28;23395;-79
2023/09/10 10:46:10;;;;;;;5.10;3.65;;;26.20;75.60;;;;;;5054635;28;20080;-79
2023/09/10 10:48:41;;;;;;;4.65;3.17;;;26.20;76.20;;;;;;5051583;28;20045;-81
2023/09/10 10:51:13;;;;;;;5.28;3.30;;;26.20;74.90;;;;;;5045700;28;20051;-80
2023/09/10 10:53:41;;;;;;;;;;;26.30;76.60;;;;;;5049398;28;20099;-81
2023/09/10 10:56:09;;;;;;;4.85;3.30;;;26.40;77.60;;;;;;5053183;28;19994;-80
2023/09/10 10:58:41;;;;;;;7.07;3.03;;;26.40;75.00;;;;;;5064941;28;20052;-79
2023/09/10 11:01:10;;;;;;;;;;;26.40;72.90;;;;;;5064609;28;20135;-80
2023/09/10 11:03:37;;;;;;;6.35;3.20;;;26.30;72.70;;;;;;5078413;28;20331;-81
2023/09/10 11:06:06;;;;;;;5.40;3.17;;;26.40;72.80;;;;;;5058131;28;20048;-81
2023/09/10 11:08:38;;;;;;;5.45;3.17;;;26.40;74.20;;;;;;5049956;28;20082;-79
2023/09/10 11:11:10;;;;;;;4.82;3.10;;;26.50;74.40;;;;;;5063336;28;20045;-82
2023/09/10 11:13:57;;;;;;;5.60;3.38;;;26.80;74.30;;;;;;5058644;28;20048;-81
2023/09/10 11:16:24;;;;;;;5.32;2.92;;;26.80;72.70;;;;;;5087567;28;20055;-81
2023/09/10 11:18:51;;;;;;;4.75;3.03;;;26.70;73.60;;;;;;5080813;28;20056;-80
2023/09/10 11:21:18;;;;;;;6.05;3.00;;;26.80;72.30;;;;;;5082929;28;20147;-80
2023/09/10 11:23:52;;;;;;;7.47;3.00;;;26.80;71.50;;;;;;5080665;28;20551;-80
2023/09/10 11:26:22;;;;;;;5.72;2.88;;;26.80;71.80;;;;;;5066906;28;20064;-80
2023/09/10 11:28:52;;;;;;;5.40;3.25;;;26.90;71.60;;;;;;5067852;28;20032;-81
2023/09/10 11:34:17;;;;;;;5.07;3.38;;;27.00;72.10;;;;;;5089441;28;20151;-80
2023/09/10 11:36:55;;;;;;;4.50;2.92;;;27.00;72.30;;;;;;5066473;28;20049;-80
2023/09/10 11:39:22;;;;;;;8.05;3.00;;;27.00;71.70;;;;;;5077450;28;20048;-80
2023/09/10 11:41:52;;;;;;;4.85;2.22;;;27.10;69.80;;;;;;5083784;28;20139;-80
2023/09/10 11:44:19;;;;;;;3.50;2.50;;;27.10;67.80;;;;;;5081062;28;20040;-80
2023/09/10 11:46:47;;;;;;;5.15;2.67;;;27.10;66.70;;;;;;5062037;28;20043;-80
2023/09/10 11:49:15;;;;;;;4.45;3.00;;;27.00;67.30;;;;;;5064024;28;20058;-81
2023/09/10 11:51:44;;;;;;;5.03;3.47;;;27.00;66.10;;;;;;5080792;28;20044;-78
2023/09/10 11:54:18;;;;;;;4.70;2.80;;;27.00;68.50;;;;;;5065585;28;20049;-81
2023/09/10 11:56:54;;;;;;;4.10;3.10;;;27.00;69.40;;;;;;5076682;28;20048;-80
2023/09/10 11:59:23;;;;;;;4.25;2.65;;;27.00;70.50;;;;;;5064910;28;20075;-80
2023/09/10 12:01:54;;;;;;;5.00;3.22;;;27.10;69.40;;;;;;5078870;28;20131;-80
2023/09/10 12:04:32;;;;;;;4.63;2.80;;;27.10;67.90;;;;;;5085397;28;20519;-79
2023/09/10 12:07:01;;;;;;;5.75;2.80;;;27.10;71.00;;;;;;5081461;28;20063;-79
2023/09/10 12:09:30;;;;;;;5.63;2.90;;;27.10;71.50;;;;;;5080721;28;20055;-79
2023/09/10 12:12:04;;;;;;;4.65;3.20;;;27.10;69.20;;;;;;5072373;28;20044;-79
2023/09/10 12:14:32;;;;;;;4.18;2.90;;;27.10;68.50;;;;;;5062864;28;20060;-79
2023/09/10 12:17:00;;;;;;;6.90;2.95;;;27.20;71.20;;;;;;5082868;28;20056;-81
2023/09/10 12:19:27;;;;;;;4.70;2.80;;;27.20;70.60;;;;;;5091966;28;20058;-80
2023/09/10 12:21:55;;;;;;;6.43;3.08;;;27.20;68.70;;;;;;5072468;28;20056;-80
2023/09/10 12:24:22;;;;;;;8.35;3.60;;;27.20;68.50;;;;;;5080765;28;20048;-79
2023/09/10 12:26:49;;;;;;;4.15;2.70;;;27.20;67.50;;;;;;5071739;28;20056;-81
2023/09/10 12:29:17;;;;;;;3.05;2.30;;;27.20;68.70;;;;;;5074031;28;20060;-81
2023/09/10 12:31:44;;;;;;;4.30;2.95;;;27.20;67.30;;;;;;5094449;28;20032;-81
2023/09/10 12:34:14;;;;;;;3.75;2.60;;;27.30;67.60;;;;;;5083084;28;20047;-78
2023/09/10 12:36:42;;;;;;;3.67;2.53;;;27.40;66.20;;;;;;5068672;28;20044;-81
2023/09/10 12:39:23;;;;;;;5.45;2.60;;;27.30;65.60;;;;;;5065012;28;20052;-82
2023/09/10 12:41:56;;;;;;;3.45;2.50;;;27.30;67.50;;;;;;5070263;28;20387;-81
2023/09/10 12:44:24;;;;;;;4.10;2.22;;;27.40;63.80;;;;;;5068699;28;20072;-82
2023/09/10 12:46:52;;;;;;;3.80;2.45;;;27.40;62.50;;;;;;5072499;28;20127;-82
2023/09/10 12:49:20;;;;;;;5.00;2.78;;;27.40;62.20;;;;;;5080139;28;20043;-79
2023/09/10 12:51:48;;;;;;;4.50;2.42;;;27.40;62.70;;;;;;5081237;28;20086;-80
2023/09/10 12:54:15;;;;;;;4.13;2.35;;;27.50;64.50;;;;;;5079214;28;20074;-80
2023/09/10 12:56:42;;;;;;;3.38;2.28;;;27.50;60.40;;;;;;5068333;28;20781;-80